Time;durP1;ratioP1;P1;durP2;ratioP2;P2;SDS_P1;SDS_P2;PMS_P1;PMS_P2;Temp;Humidity;BMP_temperature;BMP_pressure;BME280_temperature;BME280_humidity;BME280_pressure;Samples;Min_cycle;Max_cycle;Signal;HPM_P1;HPM_P2
2023/03/20 00:00:55;;;;;;;19.47;12.07;;;7.20;99.90;;;;;;5075915;28;20195;-72
2023/03/20 00:03:21;;;;;;;18.30;11.57;;;7.20;99.90;;;;;;5094153;28;20293;-72
2023/03/20 00:05:46;;;;;;;19.87;11.37;;;7.20;99.90;;;;;;5076054;28;20179;-71
2023/03/20 00:08:12;;;;;;;18.07;11.67;;;7.20;99.90;;;;;;5093848;28;20171;-72
2023/03/20 00:10:41;;;;;;;18.23;12.07;;;7.10;99.90;;;;;;5093981;28;20168;-73
2023/03/20 00:13:18;;;;;;;15.10;10.93;;;7.10;99.90;;;;;;5075443;28;20180;-73
2023/03/20 00:15:44;;;;;;;23.57;11.60;;;7.10;99.90;;;;;;5093825;28;20225;-73
2023/03/20 00:18:20;;;;;;;29.57;12.60;;;7.10;99.90;;;;;;5093933;28;20168;-73
2023/03/20 00:20:46;;;;;;;28.50;12.03;;;7.10;99.90;;;;;;5094049;28;20160;-73
2023/03/20 00:23:12;;;;;;;21.40;12.17;;;7.10;99.90;;;;;;5093649;28;20239;-73
2023/03/20 00:25:39;;;;;;;14.07;10.43;;;7.10;99.90;;;;;;5093752;28;20178;-73
2023/03/20 00:28:36;;;;;;;19.70;10.77;;;7.10;99.90;;;;;;5093706;28;20168;-73
2023/03/20 00:31:02;;;;;;;16.80;10.67;;;7.10;99.90;;;;;;5093783;28;20569;-73
2023/03/20 00:33:30;;;;;;;19.67;10.80;;;7.20;99.90;;;;;;5093776;28;20259;-73
2023/03/20 00:35:57;;;;;;;15.43;10.27;;;7.10;99.90;;;;;;5075713;28;20582;-73
2023/03/20 00:38:23;;;;;;;14.77;10.03;;;7.20;99.90;;;;;;5075280;28;20180;-73
2023/03/20 00:40:49;;;;;;;18.27;10.20;;;7.30;99.90;;;;;;5093351;28;20183;-73
2023/03/20 00:43:15;;;;;;;17.07;10.40;;;7.40;99.90;;;;;;5093565;28;20627;-73
2023/03/20 00:45:44;;;;;;;18.67;10.73;;;7.50;99.90;;;;;;5093490;28;20213;-72
2023/03/20 00:48:14;;;;;;;19.23;9.93;;;7.60;99.90;;;;;;5093576;28;20206;-72
2023/03/20 00:50:40;;;;;;;17.20;10.00;;;7.60;99.90;;;;;;5093157;28;20168;-72
2023/03/20 00:53:09;;;;;;;18.10;10.20;;;7.80;99.90;;;;;;5075374;28;20504;-72
2023/03/20 00:55:35;;;;;;;14.00;9.23;;;7.80;99.90;;;;;;5093198;28;20163;-72
2023/03/20 00:58:02;;;;;;;16.43;9.97;;;7.80;99.90;;;;;;5093419;28;20163;-72
2023/03/20 01:00:42;;;;;;;16.73;9.90;;;7.80;99.90;;;;;;5093204;28;20172;-71
2023/03/20 01:03:15;;;;;;;16.23;9.67;;;7.90;99.90;;;;;;5092717;28;20178;-72
2023/03/20 01:05:42;;;;;;;17.27;10.00;;;7.90;99.90;;;;;;5092966;28;20192;-72
2023/03/20 01:08:17;;;;;;;17.17;9.93;;;7.90;99.90;;;;;;5093421;28;20252;-72
2023/03/20 01:10:44;;;;;;;15.07;9.10;;;7.90;99.90;;;;;;5093270;28;20167;-72
2023/03/20 01:13:25;;;;;;;12.67;9.13;;;7.80;99.90;;;;;;5093271;28;20240;-71
2023/03/20 01:15:51;;;;;;;18.63;9.07;;;7.70;99.90;;;;;;5071383;28;20688;-72
2023/03/20 01:18:19;;;;;;;13.87;9.60;;;7.80;99.90;;;;;;5073115;28;20172;-72
2023/03/20 01:20:46;;;;;;;15.67;9.60;;;7.80;99.90;;;;;;5072685;28;20192;-72
2023/03/20 01:23:12;;;;;;;16.23;9.63;;;7.80;99.90;;;;;;5072872;28;20257;-72
2023/03/20 01:25:39;;;;;;;14.67;9.73;;;8.00;99.90;;;;;;5072835;28;20542;-71
2023/03/20 01:28:22;;;;;;;19.43;9.53;;;8.10;99.90;;;;;;5072937;28;20204;-71
2023/03/20 01:30:48;;;;;;;20.73;10.47;;;8.10;99.90;;;;;;5073075;28;20302;-71
2023/03/20 01:33:20;;;;;;;17.37;9.50;;;8.10;99.90;;;;;;5072830;28;20176;-71
2023/03/20 01:35:48;;;;;;;15.30;10.23;;;8.20;99.90;;;;;;5072519;28;20226;-71
2023/03/20 01:38:24;;;;;;;16.93;10.30;;;8.20;99.90;;;;;;5071588;28;20662;-72
2023/03/20 01:40:53;;;;;;;15.97;10.43;;;8.20;99.90;;;;;;5071547;28;20182;-71
2023/03/20 01:43:20;;;;;;;16.87;10.23;;;8.20;99.90;;;;;;5071453;28;20172;-71
2023/03/20 01:46:12;;;;;;;17.90;10.57;;;8.20;99.90;;;;;;5072570;28;20168;-71
2023/03/20 01:48:50;;;;;;;20.80;10.83;;;8.20;99.90;;;;;;5072405;28;20234;-71
2023/03/20 01:51:17;;;;;;;18.37;11.33;;;8.30;99.90;;;;;;5072550;28;20251;-71
2023/03/20 01:53:45;;;;;;;19.07;11.30;;;8.20;99.90;;;;;;5071428;28;20191;-72
2023/03/20 01:56:14;;;;;;;21.40;11.80;;;8.20;99.90;;;;;;5071502;28;20259;-71
2023/03/20 01:58:55;;;;;;;18.83;10.83;;;8.20;99.90;;;;;;5072541;28;20659;-71
2023/03/20 02:01:23;;;;;;;21.00;11.60;;;8.00;99.90;;;;;;5072591;28;20655;-72
2023/03/20 02:03:49;;;;;;;17.30;11.33;;;8.00;99.90;;;;;;5072152;28;20223;-72
2023/03/20 02:06:15;;;;;;;20.70;12.73;;;8.10;99.90;;;;;;5072465;28;20208;-71
2023/03/20 02:08:47;;;;;;;19.10;12.00;;;8.00;99.90;;;;;;5072587;28;20211;-71
2023/03/20 02:11:15;;;;;;;19.20;11.03;;;8.10;99.90;;;;;;5072468;28;20172;-71
2023/03/20 02:13:41;;;;;;;17.90;11.97;;;7.90;99.90;;;;;;5071326;28;20199;-72
2023/03/20 02:16:16;;;;;;;23.17;13.00;;;7.70;99.90;;;;;;5086764;28;20253;-72
2023/03/20 02:18:44;;;;;;;20.53;12.10;;;7.70;99.90;;;;;;5096001;28;20206;-72
2023/03/20 02:21:38;;;;;;;20.17;12.93;;;7.80;99.90;;;;;;5096134;28;20164;-72
2023/03/20 02:24:24;;;;;;;20.03;12.57;;;7.70;99.90;;;;;;5096147;28;20172;-72
2023/03/20 02:26:50;;;;;;;18.10;12.23;;;7.70;99.90;;;;;;5096178;28;20235;-72
2023/03/20 02:29:30;;;;;;;25.90;12.87;;;7.60;99.90;;;;;;5095996;28;20684;-71
2023/03/20 02:32:34;;;;;;;27.83;13.03;;;7.60;99.90;;;;;;5096058;28;20199;-72
2023/03/20 02:35:24;;;;;;;25.97;12.43;;;7.50;99.90;;;;;;5095795;28;20650;-71
2023/03/20 02:38:17;;;;;;;21.20;12.60;;;7.50;99.90;;;;;;5095781;28;20160;-70
2023/03/20 02:40:52;;;;;;;24.60;13.07;;;7.50;99.90;;;;;;5077636;28;20262;-72
2023/03/20 02:43:26;;;;;;;24.27;13.10;;;7.40;99.90;;;;;;5095594;28;20174;-71
2023/03/20 02:46:01;;;;;;;25.03;13.33;;;7.40;99.90;;;;;;5077392;28;20225;-71
2023/03/20 02:49:15;;;;;;;25.10;13.83;;;7.50;99.90;;;;;;5095342;28;20692;-72
2023/03/20 02:52:18;;;;;;;27.37;13.63;;;7.50;99.90;;;;;;4977531;28;20194;-72
2023/03/20 02:55:09;;;;;;;23.90;13.73;;;7.50;99.90;;;;;;4993843;28;20167;-72
2023/03/20 02:57:57;;;;;;;24.20;13.27;;;7.50;99.90;;;;;;4993740;28;20187;-72
2023/03/20 03:00:22;;;;;;;29.57;15.30;;;7.50;99.90;;;;;;4993996;28;20277;-71
2023/03/20 03:02:53;;;;;;;25.83;13.70;;;7.40;99.90;;;;;;4993432;28;20263;-72
2023/03/20 03:05:29;;;;;;;25.27;13.57;;;7.40;99.90;;;;;;4993852;28;20189;-71
2023/03/20 03:07:59;;;;;;;27.67;14.40;;;7.40;99.90;;;;;;4993500;28;20230;-71
2023/03/20 03:10:33;;;;;;;24.73;14.60;;;7.50;99.90;;;;;;4993542;28;20203;-71
2023/03/20 03:13:01;;;;;;;28.07;15.23;;;7.40;99.90;;;;;;4993582;28;20179;-72
2023/03/20 03:15:37;;;;;;;30.40;13.50;;;7.30;99.90;;;;;;4993296;28;20231;-71
2023/03/20 03:18:05;;;;;;;33.10;14.73;;;7.30;99.90;;;;;;4993487;28;20414;-72
2023/03/20 03:20:42;;;;;;;26.57;14.37;;;7.40;99.90;;;;;;4993306;28;20199;-71
2023/03/20 03:23:17;;;;;;;28.73;14.50;;;7.40;99.90;;;;;;4993423;28;20211;-72
2023/03/20 03:25:44;;;;;;;34.80;14.93;;;7.30;99.90;;;;;;4992642;28;20206;-71
2023/03/20 03:28:20;;;;;;;28.23;14.00;;;7.30;99.90;;;;;;5049172;28;20183;-71
2023/03/20 03:30:46;;;;;;;26.53;14.17;;;7.30;99.90;;;;;;5076687;28;20586;-72
2023/03/20 03:33:25;;;;;;;27.10;14.20;;;7.20;99.90;;;;;;5094526;28;20253;-72
2023/03/20 03:36:13;;;;;;;28.90;14.80;;;7.30;99.90;;;;;;5094635;28;20703;-71
2023/03/20 03:39:12;;;;;;;29.87;14.10;;;7.30;99.90;;;;;;5043239;28;20192;-71
2023/03/20 03:41:54;;;;;;;23.80;13.37;;;7.40;99.90;;;;;;5094194;28;20233;-71
2023/03/20 03:44:22;;;;;;;37.53;15.17;;;7.30;99.90;;;;;;5094696;28;20170;-72
2023/03/20 03:46:59;;;;;;;24.00;13.07;;;7.30;99.90;;;;;;5094100;28;20238;-71
2023/03/20 03:49:39;;;;;;;24.90;13.37;;;7.30;99.90;;;;;;5094561;28;20168;-72
2023/03/20 03:52:09;;;;;;;22.77;13.17;;;7.30;99.90;;;;;;5094214;28;20166;-72
2023/03/20 03:54:42;;;;;;;28.50;14.40;;;7.30;99.90;;;;;;5094200;28;20595;-71
2023/03/20 03:57:11;;;;;;;22.90;13.57;;;7.40;99.90;;;;;;5076082;28;20570;-71
2023/03/20 03:59:40;;;;;;;22.70;13.40;;;7.40;99.90;;;;;;5093850;28;20179;-71
2023/03/20 04:02:08;;;;;;;24.13;13.73;;;7.40;99.90;;;;;;5075938;28;20192;-71
2023/03/20 04:04:36;;;;;;;25.23;12.90;;;7.30;99.90;;;;;;5093955;28;20193;-71
2023/03/20 04:07:01;;;;;;;22.97;12.40;;;7.30;99.90;;;;;;5094182;28;20208;-71
2023/03/20 04:09:27;;;;;;;26.33;12.33;;;7.30;99.90;;;;;;5094062;28;20679;-71
2023/03/20 04:11:53;;;;;;;22.67;12.90;;;7.40;99.90;;;;;;5094011;28;20172;-71
2023/03/20 04:14:19;;;;;;;27.13;12.60;;;7.40;99.90;;;;;;5075360;28;20267;-72
2023/03/20 04:16:45;;;;;;;19.37;12.20;;;7.40;99.90;;;;;;5093247;28;20215;-71
2023/03/20 04:19:11;;;;;;;23.97;11.53;;;7.30;99.90;;;;;;5093649;28;20259;-71
2023/03/20 04:21:36;;;;;;;24.97;12.47;;;7.30;99.90;;;;;;5093740;28;20167;-71
2023/03/20 04:24:02;;;;;;;28.80;12.40;;;7.40;99.90;;;;;;5093627;28;20254;-71
2023/03/20 04:26:28;;;;;;;22.13;12.23;;;7.40;99.90;;;;;;5093744;28;20282;-71
2023/03/20 04:28:54;;;;;;;23.03;12.17;;;7.40;99.90;;;;;;5093191;28;20301;-71
2023/03/20 04:31:19;;;;;;;22.27;11.07;;;7.40;99.90;;;;;;5093569;28;20168;-70
2023/03/20 04:33:46;;;;;;;25.97;12.03;;;7.40;99.90;;;;;;5093342;28;20172;-71
2023/03/20 04:36:12;;;;;;;28.80;11.57;;;7.30;99.90;;;;;;5093190;28;20157;-71
2023/03/20 04:38:38;;;;;;;19.50;10.73;;;7.30;99.90;;;;;;5093196;28;20172;-71
2023/03/20 04:41:04;;;;;;;20.00;11.43;;;7.30;99.90;;;;;;5093584;28;20172;-71
2023/03/20 04:43:30;;;;;;;20.13;10.97;;;7.30;99.90;;;;;;5092958;28;20206;-71
2023/03/20 04:45:56;;;;;;;24.67;10.70;;;7.20;99.90;;;;;;5093038;28;20176;-71
2023/03/20 04:48:22;;;;;;;25.27;11.70;;;7.20;99.90;;;;;;5092928;28;20183;-72
2023/03/20 04:50:49;;;;;;;23.30;11.40;;;7.30;99.90;;;;;;5093031;28;20175;-71
2023/03/20 04:53:15;;;;;;;22.13;10.70;;;7.20;99.90;;;;;;5092820;28;20209;-71
2023/03/20 04:55:41;;;;;;;22.13;10.87;;;7.30;99.90;;;;;;5092981;28;20677;-71
2023/03/20 04:58:07;;;;;;;22.13;10.67;;;7.30;99.90;;;;;;5092897;28;20171;-71
2023/03/20 05:00:33;;;;;;;23.80;10.33;;;7.30;99.90;;;;;;5092655;28;20215;-72
2023/03/20 05:03:00;;;;;;;29.77;10.93;;;7.20;99.90;;;;;;5074965;28;20164;-72
2023/03/20 05:05:26;;;;;;;18.23;9.87;;;7.20;99.90;;;;;;5074303;28;20631;-71
2023/03/20 05:07:52;;;;;;;26.67;10.70;;;7.20;99.90;;;;;;5075023;28;20196;-71
2023/03/20 05:10:18;;;;;;;21.07;10.30;;;7.20;99.90;;;;;;5092821;28;20168;-70
2023/03/20 05:12:43;;;;;;;22.17;10.10;;;7.30;99.90;;;;;;5092751;28;20634;-70
2023/03/20 05:15:09;;;;;;;21.53;9.60;;;7.30;99.90;;;;;;5092304;28;20243;-71
2023/03/20 05:17:35;;;;;;;21.63;9.67;;;7.30;99.90;;;;;;5092509;28;20247;-73
2023/03/20 05:20:01;;;;;;;19.40;8.93;;;7.30;99.90;;;;;;5092565;28;20175;-70
2023/03/20 05:22:26;;;;;;;22.53;9.47;;;7.30;99.90;;;;;;5092649;28;20218;-71
2023/03/20 05:24:52;;;;;;;17.80;9.00;;;7.30;99.90;;;;;;5092498;28;20172;-71
2023/03/20 05:27:18;;;;;;;19.10;8.63;;;7.20;99.90;;;;;;5074295;28;20214;-70
2023/03/20 05:29:44;;;;;;;21.07;9.10;;;7.10;99.90;;;;;;5092922;28;20181;-72
2023/03/20 05:32:11;;;;;;;16.13;8.37;;;7.10;99.90;;;;;;5092364;28;20563;-71
2023/03/20 05:34:37;;;;;;;16.77;8.93;;;7.10;99.90;;;;;;5092549;28;20558;-71
2023/03/20 05:37:03;;;;;;;16.73;9.07;;;7.20;99.90;;;;;;5092582;28;20346;-72
2023/03/20 05:39:29;;;;;;;21.93;8.70;;;7.20;99.90;;;;;;5092535;28;20168;-71
2023/03/20 05:41:54;;;;;;;17.47;8.50;;;7.30;99.90;;;;;;5073767;28;20172;-71
2023/03/20 05:44:20;;;;;;;17.93;8.13;;;7.30;99.90;;;;;;5092273;28;20160;-72
2023/03/20 05:46:46;;;;;;;21.97;9.00;;;7.20;99.90;;;;;;5092224;28;20650;-71
2023/03/20 05:49:11;;;;;;;25.33;7.87;;;7.20;99.90;;;;;;5077085;28;20175;-71
2023/03/20 05:51:37;;;;;;;20.97;8.83;;;7.30;99.90;;;;;;5077647;28;20171;-70
2023/03/20 05:54:03;;;;;;;23.00;7.83;;;7.30;99.90;;;;;;5096144;28;20200;-70
2023/03/20 05:56:29;;;;;;;22.60;7.97;;;7.40;99.90;;;;;;5095536;28;20612;-71
2023/03/20 05:58:54;;;;;;;16.37;7.37;;;7.40;99.90;;;;;;5095717;28;20175;-71
2023/03/20 06:01:20;;;;;;;17.67;7.63;;;7.50;99.90;;;;;;5095798;28;20249;-71
2023/03/20 06:03:49;;;;;;;16.70;8.20;;;7.50;99.90;;;;;;5096004;28;20164;-71
2023/03/20 06:06:16;;;;;;;18.53;7.80;;;7.50;99.90;;;;;;5095102;28;20200;-71
2023/03/20 06:08:41;;;;;;;20.83;7.27;;;7.60;99.90;;;;;;5095786;28;20168;-72
2023/03/20 06:11:07;;;;;;;26.37;8.43;;;7.60;99.90;;;;;;5094135;28;20530;-71
2023/03/20 06:13:33;;;;;;;16.00;7.33;;;7.70;99.90;;;;;;5077143;28;20175;-71
2023/03/20 06:15:59;;;;;;;13.70;6.83;;;7.60;99.90;;;;;;5073683;28;20274;-71
2023/03/20 06:18:25;;;;;;;16.97;7.33;;;7.60;99.90;;;;;;5075319;28;20252;-71
2023/03/20 06:20:56;;;;;;;13.73;6.47;;;7.60;99.90;;;;;;5075038;28;20187;-72
2023/03/20 06:23:22;;;;;;;18.30;6.70;;;7.50;99.90;;;;;;5075033;28;20172;-71
2023/03/20 06:25:48;;;;;;;17.37;6.90;;;7.60;99.90;;;;;;5074197;28;20207;-71
2023/03/20 06:28:14;;;;;;;15.43;6.70;;;7.70;99.90;;;;;;5074087;28;20228;-71
2023/03/20 06:30:39;;;;;;;17.27;7.20;;;7.90;99.90;;;;;;5074771;28;20176;-73
2023/03/20 06:33:06;;;;;;;15.20;7.10;;;7.70;99.90;;;;;;5074992;28;20187;-71
2023/03/20 06:35:32;;;;;;;14.30;6.57;;;7.70;99.90;;;;;;5074656;28;20640;-71
2023/03/20 06:37:58;;;;;;;16.37;7.33;;;7.80;99.90;;;;;;5074968;28;20180;-71
2023/03/20 06:40:26;;;;;;;12.93;6.00;;;7.80;99.90;;;;;;5072261;28;20179;-72
2023/03/20 06:42:52;;;;;;;23.17;7.13;;;7.70;99.90;;;;;;5072509;28;20199;-70
2023/03/20 06:45:18;;;;;;;16.27;6.67;;;7.70;99.90;;;;;;5073744;28;20169;-72
2023/03/20 06:47:45;;;;;;;20.10;6.53;;;7.80;99.90;;;;;;5074713;28;20240;-71
2023/03/20 06:50:12;;;;;;;14.37;6.63;;;7.80;99.90;;;;;;5074151;28;20246;-72
2023/03/20 06:52:38;;;;;;;16.07;6.10;;;7.80;99.90;;;;;;5073575;28;20275;-72
2023/03/20 06:55:05;;;;;;;15.70;6.07;;;7.90;99.90;;;;;;5073853;28;20175;-73
2023/03/20 06:57:31;;;;;;;14.10;5.83;;;7.70;99.90;;;;;;5073986;28;20176;-72
2023/03/20 06:59:57;;;;;;;12.60;5.93;;;7.50;99.90;;;;;;5073174;28;20509;-71
2023/03/20 07:02:23;;;;;;;14.93;5.40;;;7.50;99.90;;;;;;5073353;28;20268;-71
2023/03/20 07:04:48;;;;;;;10.20;5.43;;;7.50;99.90;;;;;;5074167;28;20207;-72
2023/03/20 07:07:14;;;;;;;14.67;5.20;;;7.60;99.90;;;;;;5073668;28;20214;-72
2023/03/20 07:09:39;;;;;;;16.60;6.07;;;7.70;99.90;;;;;;5073084;28;20168;-72
2023/03/20 07:12:10;;;;;;;16.57;5.50;;;7.70;99.90;;;;;;5073944;28;20282;-71
2023/03/20 07:14:35;;;;;;;9.53;5.17;;;7.80;99.90;;;;;;5073245;28;20190;-72
2023/03/20 07:17:01;;;;;;;12.40;4.73;;;7.70;99.90;;;;;;5091460;28;20268;-72
2023/03/20 07:19:27;;;;;;;18.90;5.47;;;7.70;99.90;;;;;;5093900;28;20172;-71
2023/03/20 07:22:00;;;;;;;13.80;5.40;;;7.80;99.90;;;;;;5093988;28;20178;-71
2023/03/20 07:24:26;;;;;;;16.57;5.17;;;7.80;99.90;;;;;;5093732;28;20172;-74
2023/03/20 07:26:52;;;;;;;14.03;5.47;;;7.90;99.90;;;;;;5093259;28;20212;-73
2023/03/20 07:29:21;;;;;;;14.80;5.50;;;7.90;99.90;;;;;;5059687;28;20172;-74
2023/03/20 07:31:49;;;;;;;10.37;4.83;;;7.80;99.90;;;;;;5054912;28;20185;-73
2023/03/20 07:34:15;;;;;;;12.53;5.20;;;8.00;99.90;;;;;;5056672;28;20188;-77
2023/03/20 07:36:44;;;;;;;11.93;5.53;;;8.10;98.50;;;;;;5037233;28;20224;-72
2023/03/20 07:39:12;;;;;;;13.90;4.90;;;8.30;96.30;;;;;;5055224;28;20643;-75
2023/03/20 07:41:37;;;;;;;15.60;4.90;;;8.40;91.60;;;;;;5054590;28;20179;-74
2023/03/20 07:44:03;;;;;;;14.73;5.07;;;8.40;87.10;;;;;;5055532;28;20176;-72
2023/03/20 07:46:29;;;;;;;13.53;5.03;;;8.50;89.50;;;;;;5055342;28;20648;-72
2023/03/20 07:48:56;;;;;;;15.20;5.23;;;8.60;86.70;;;;;;5055565;28;20175;-73
2023/03/20 07:51:23;;;;;;;12.40;4.83;;;8.70;78.10;;;;;;5051852;28;20655;-71
2023/03/20 07:53:48;;;;;;;18.00;4.90;;;8.80;69.10;;;;;;5051872;28;20184;-71
2023/03/20 07:56:14;;;;;;;10.67;5.00;;;8.80;70.10;;;;;;5054105;28;20647;-72
2023/03/20 07:58:39;;;;;;;12.57;5.00;;;8.80;65.80;;;;;;5055024;28;20165;-71
2023/03/20 08:01:05;;;;;;;18.30;5.03;;;8.80;66.80;;;;;;5064998;28;20212;-71
2023/03/20 08:03:31;;;;;;;15.47;5.17;;;8.80;68.10;;;;;;5072650;28;20181;-71
2023/03/20 08:05:56;;;;;;;13.23;4.87;;;8.90;63.60;;;;;;5072226;28;20165;-72
2023/03/20 08:08:22;;;;;;;11.90;4.80;;;8.80;56.60;;;;;;5070617;28;20275;-71
2023/03/20 08:10:48;;;;;;;13.17;4.30;;;8.70;66.30;;;;;;5070917;28;20172;-72
2023/03/20 08:13:14;;;;;;;15.67;5.63;;;8.70;62.50;;;;;;5072357;28;20200;-72
2023/03/20 08:15:39;;;;;;;13.10;5.03;;;8.80;63.60;;;;;;5071661;28;20255;-71
2023/03/20 08:18:05;;;;;;;15.60;4.70;;;8.70;63.00;;;;;;5072399;28;20212;-71
2023/03/20 08:20:33;;;;;;;12.67;4.40;;;8.70;64.10;;;;;;5065733;28;20172;-73
2023/03/20 08:22:59;;;;;;;10.60;4.57;;;8.70;61.30;;;;;;5054035;28;20264;-73
2023/03/20 08:25:25;;;;;;;13.73;4.13;;;8.80;63.20;;;;;;5036371;28;20171;-74
2023/03/20 08:27:51;;;;;;;13.37;4.83;;;8.90;54.60;;;;;;5054038;28;20669;-76
2023/03/20 08:30:16;;;;;;;11.03;4.40;;;8.90;56.40;;;;;;5053215;28;20525;-73
2023/03/20 08:32:42;;;;;;;11.93;4.93;;;8.80;56.00;;;;;;5054607;28;20230;-72
2023/03/20 08:35:08;;;;;;;13.67;4.30;;;8.90;55.40;;;;;;5051356;28;20246;-73
2023/03/20 08:37:36;;;;;;;12.77;4.70;;;9.00;55.20;;;;;;5049374;28;20210;-73
2023/03/20 08:40:02;;;;;;;12.17;4.57;;;9.00;52.50;;;;;;5039560;28;20181;-73
2023/03/20 08:42:28;;;;;;;15.73;4.93;;;9.10;52.20;;;;;;5049242;28;20176;-74
2023/03/20 08:44:54;;;;;;;14.47;5.43;;;9.10;46.00;;;;;;5047016;28;20180;-75
2023/03/20 08:47:19;;;;;;;14.20;5.17;;;9.10;49.40;;;;;;5047422;28;20217;-72
2023/03/20 08:49:45;;;;;;;12.27;5.40;;;9.20;46.70;;;;;;5050605;28;20172;-75
2023/03/20 08:52:10;;;;;;;15.63;5.43;;;9.30;45.10;;;;;;5047991;28;20172;-74
2023/03/20 08:54:36;;;;;;;13.10;5.17;;;9.40;34.60;;;;;;5052399;28;20171;-73
2023/03/20 08:57:02;;;;;;;16.17;5.50;;;9.40;31.10;;;;;;5053360;28;20561;-73
2023/03/20 08:59:31;;;;;;;18.33;5.30;;;9.40;29.10;;;;;;5050269;28;20220;-73
2023/03/20 09:01:57;;;;;;;16.10;6.00;;;9.60;26.80;;;;;;5053079;28;20262;-74
2023/03/20 09:04:22;;;;;;;9.97;4.87;;;9.60;24.20;;;;;;5052758;28;20192;-73
2023/03/20 09:06:48;;;;;;;13.77;5.57;;;9.50;21.90;;;;;;5049326;28;20303;-74
2023/03/20 09:09:17;;;;;;;15.93;5.97;;;9.30;25.90;;;;;;5032796;28;20603;-73
2023/03/20 09:11:42;;;;;;;15.47;5.80;;;9.30;35.00;;;;;;5030121;28;20205;-75
2023/03/20 09:14:08;;;;;;;12.10;5.57;;;9.30;30.10;;;;;;5034664;28;20184;-74
2023/03/20 09:16:36;;;;;;;18.37;5.60;;;9.40;33.80;;;;;;5053159;28;20212;-73
2023/03/20 09:19:02;;;;;;;16.13;5.77;;;9.40;30.40;;;;;;5052052;28;20219;-72
2023/03/20 09:21:28;;;;;;;13.20;5.37;;;9.40;27.00;;;;;;5034615;28;20208;-77
2023/03/20 09:23:54;;;;;;;9.73;5.07;;;9.50;26.60;;;;;;5034628;28;20181;-73
2023/03/20 09:26:19;;;;;;;10.57;5.03;;;9.70;24.60;;;;;;5050299;28;20660;-74
2023/03/20 09:28:48;;;;;;;19.43;5.50;;;9.50;21.80;;;;;;5040168;28;20196;-73
2023/03/20 09:31:14;;;;;;;15.50;5.87;;;9.80;23.80;;;;;;5036592;28;20674;-72
2023/03/20 09:33:40;;;;;;;17.97;5.97;;;9.90;17.50;;;;;;5052206;28;20187;-73
2023/03/20 09:36:07;;;;;;;14.70;5.27;;;9.90;12.90;;;;;;5056137;28;20184;-72
2023/03/20 09:38:36;;;;;;;16.10;5.47;;;9.80;11.90;;;;;;5030829;28;20198;-74
2023/03/20 09:41:04;;;;;;;15.83;5.20;;;9.80;15.90;;;;;;5049878;28;20176;-74
2023/03/20 09:43:42;;;;;;;16.67;5.70;;;9.70;8.10;;;;;;5037139;28;20176;-75
2023/03/20 09:46:20;;;;;;;9.10;5.00;;;9.80;16.80;;;;;;5030974;28;20253;-74
2023/03/20 09:49:11;;;;;;;14.17;5.67;;;9.80;10.90;;;;;;5052411;28;20709;-75
2023/03/20 09:51:50;;;;;;;12.30;5.23;;;9.90;6.40;;;;;;5025673;28;20200;-74
2023/03/20 09:54:20;;;;;;;13.43;5.40;;;10.20;1.60;;;;;;5060827;28;20225;-74
2023/03/20 09:56:46;;;;;;;8.83;5.23;;;10.40;1.00;;;;;;5057037;28;20177;-73
2023/03/20 09:59:15;;;;;;;11.50;5.53;;;10.70;1.00;;;;;;5058935;28;20176;-73
2023/03/20 10:01:54;;;;;;;14.90;5.50;;;11.00;1.00;;;;;;5054213;28;20197;-73
2023/03/20 10:04:22;;;;;;;11.10;4.97;;;11.10;1.00;;;;;;5057068;28;20180;-73
2023/03/20 10:06:48;;;;;;;16.80;5.10;;;11.20;1.00;;;;;;5055254;28;20220;-74
2023/03/20 10:09:25;;;;;;;11.10;4.90;;;11.30;1.00;;;;;;5047699;28;20195;-72
2023/03/20 10:12:02;;;;;;;11.53;4.83;;;11.10;1.00;;;;;;5039248;28;20183;-73
2023/03/20 10:14:54;;;;;;;15.80;5.83;;;11.20;1.00;;;;;;5055796;28;20608;-76
2023/03/20 10:17:37;;;;;;;17.37;5.47;;;11.30;1.00;;;;;;5038626;28;20194;-73
2023/03/20 10:20:33;;;;;;;11.60;5.57;;;11.40;1.00;;;;;;5057344;28;20311;-74
2023/03/20 10:23:29;;;;;;;12.63;4.97;;;11.70;1.00;;;;;;5063842;28;20192;-74
2023/03/20 10:26:05;;;;;;;13.07;5.07;;;11.60;1.00;;;;;;5063686;28;20282;-75
2023/03/20 10:28:57;;;;;;;19.23;4.67;;;11.80;1.00;;;;;;5053851;28;20192;-75
2023/03/20 10:31:49;;;;;;;18.00;5.23;;;11.80;1.00;;;;;;5044711;28;20222;-77
2023/03/20 10:34:44;;;;;;;18.00;4.73;;;12.00;1.00;;;;;;5054086;28;20187;-77
2023/03/20 10:37:30;;;;;;;13.03;4.80;;;12.40;1.00;;;;;;5045956;28;20192;-74
2023/03/20 10:40:30;;;;;;;11.93;4.87;;;12.30;1.00;;;;;;5068806;28;20175;-74
2023/03/20 10:43:01;;;;;;;12.20;4.37;;;12.50;1.00;;;;;;5037359;28;20173;-74
2023/03/20 10:45:47;;;;;;;10.00;4.13;;;12.50;1.00;;;;;;5057140;28;20267;-77
2023/03/20 10:48:19;;;;;;;17.27;4.63;;;12.80;1.00;;;;;;5056121;28;20590;-76
2023/03/20 10:50:53;;;;;;;18.50;4.40;;;13.10;1.00;;;;;;5056008;28;20516;-75
2023/03/20 10:53:30;;;;;;;12.50;3.90;;;13.40;1.00;;;;;;5056046;28;20552;-77
2023/03/20 10:56:02;;;;;;;18.73;4.57;;;13.30;1.00;;;;;;5055004;28;20693;-74
2023/03/20 10:58:32;;;;;;;9.67;4.23;;;13.50;1.00;;;;;;5063405;28;20188;-80
2023/03/20 11:01:02;;;;;;;7.57;3.97;;;13.60;1.00;;;;;;5069524;28;20188;-80
2023/03/20 11:03:30;;;;;;;8.27;3.23;;;13.50;1.00;;;;;;5039491;28;20164;-76
2023/03/20 11:06:07;;;;;;;11.90;3.87;;;13.50;1.00;;;;;;5055875;28;20691;-78
2023/03/20 11:08:41;;;;;;;12.70;4.33;;;13.40;1.00;;;;;;5047039;28;20219;-75
2023/03/20 11:11:07;;;;;;;9.30;4.00;;;13.10;1.00;;;;;;5055717;28;20673;-73
2023/03/20 11:13:42;;;;;;;10.63;3.83;;;13.10;1.00;;;;;;5056771;28;20173;-75
2023/03/20 11:16:21;;;;;;;14.13;4.73;;;13.30;1.00;;;;;;5054968;28;20620;-74
2023/03/20 11:18:49;;;;;;;10.00;4.33;;;13.60;1.00;;;;;;5056334;28;20662;-77
2023/03/20 11:21:26;;;;;;;13.60;4.47;;;13.80;1.00;;;;;;5056583;28;20317;-76
2023/03/20 11:23:53;;;;;;;11.87;4.20;;;13.30;1.00;;;;;;5055993;28;20274;-77
2023/03/20 11:26:37;;;;;;;10.23;4.03;;;13.30;1.00;;;;;;5053994;28;20169;-77
2023/03/20 11:29:06;;;;;;;9.67;4.00;;;13.40;1.00;;;;;;5051727;28;20664;-75
2023/03/20 11:31:35;;;;;;;12.43;4.27;;;13.40;1.00;;;;;;5056376;28;20172;-76
2023/03/20 11:34:03;;;;;;;10.00;3.63;;;13.60;1.00;;;;;;5045020;28;20184;-77
2023/03/20 11:36:33;;;;;;;8.67;4.00;;;13.40;1.00;;;;;;5042840;28;20176;-76
2023/03/20 11:39:14;;;;;;;11.87;4.33;;;13.30;1.00;;;;;;5049762;28;20175;-78
2023/03/20 11:41:49;;;;;;;13.73;4.80;;;13.20;1.00;;;;;;5047098;28;20176;-76
2023/03/20 11:44:27;;;;;;;10.43;4.60;;;13.30;1.00;;;;;;5053923;28;20213;-78
2023/03/20 11:47:04;;;;;;;10.20;3.87;;;13.80;1.00;;;;;;5051325;28;20192;-75
2023/03/20 11:49:31;;;;;;;8.20;3.63;;;14.00;1.00;;;;;;5034882;28;20184;-73
2023/03/20 11:52:10;;;;;;;13.10;3.87;;;13.80;1.00;;;;;;5047136;28;20176;-78
2023/03/20 11:54:36;;;;;;;13.07;4.33;;;14.00;1.00;;;;;;5051200;28;20192;-77
2023/03/20 11:57:02;;;;;;;11.80;4.03;;;13.90;1.00;;;;;;5054528;28;20241;-76
2023/03/20 11:59:36;;;;;;;6.93;3.37;;;13.90;1.00;;;;;;5051066;28;20258;-74
2023/03/20 12:02:18;;;;;;;9.87;4.57;;;14.40;1.00;;;;;;5052039;28;20208;-72
2023/03/20 12:04:46;;;;;;;12.00;4.00;;;13.90;1.00;;;;;;5035236;28;20524;-72
2023/03/20 12:07:14;;;;;;;15.03;4.60;;;14.20;1.00;;;;;;5033754;28;20204;-76
2023/03/20 12:09:42;;;;;;;7.60;3.90;;;15.10;99.90;;;;;;5035566;28;20759;-77
2023/03/20 12:12:42;;;;;;;11.23;4.20;;;15.60;1.00;;;;;;5048528;28;20172;-77
2023/03/20 12:15:10;;;;;;;8.57;4.10;;;15.70;99.90;;;;;;5054045;28;20172;-74
2023/03/20 12:17:57;;;;;;;7.37;4.20;;;15.30;69.50;;;;;;5051190;28;20636;-78
2023/03/20 12:20:29;;;;;;;7.38;3.92;;;15.80;1.00;;;;;;5041633;28;20674;-75
2023/03/20 12:22:55;;;;;;;10.10;4.57;;;15.60;1.00;;;;;;5048144;28;20259;-77
2023/03/20 12:25:24;;;;;;;10.20;4.83;;;15.70;1.00;;;;;;5052758;28;20263;-73
2023/03/20 12:28:01;;;;;;;11.57;4.83;;;15.60;1.00;;;;;;5052523;28;20332;-75
2023/03/20 12:30:45;;;;;;;11.47;4.97;;;15.50;1.00;;;;;;5051109;28;20277;-76
2023/03/20 12:33:48;;;;;;;11.20;4.60;;;15.20;99.90;;;;;;5051163;28;20191;-74
2023/03/20 12:36:25;;;;;;;10.00;4.83;;;14.20;1.00;;;;;;5026483;28;20191;-77
2023/03/20 12:38:51;;;;;;;10.57;5.00;;;14.00;1.00;;;;;;5055820;28;20165;-77
2023/03/20 12:41:51;;;;;;;11.80;4.93;;;14.10;1.00;;;;;;5052656;28;20192;-77
2023/03/20 12:44:35;;;;;;;20.30;5.10;;;14.50;1.00;;;;;;5054004;28;20654;-75
2023/03/20 12:47:11;;;;;;;11.53;5.00;;;14.70;1.00;;;;;;5053354;28;20208;-76
2023/03/20 12:49:54;;;;;;;14.77;5.30;;;14.70;1.00;;;;;;5037185;28;20662;-74
2023/03/20 12:52:55;;;;;;;16.13;4.97;;;14.50;1.00;;;;;;5038855;28;20250;-75
2023/03/20 12:55:40;;;;;;;16.17;5.80;;;14.50;1.00;;;;;;5048685;28;20176;-77
2023/03/20 12:58:22;;;;;;;15.00;5.40;;;14.50;1.00;;;;;;5051196;28;20184;-73
2023/03/20 13:01:01;;;;;;;167.30;122.20;;;14.40;1.00;;;;;;5054012;28;20203;-73
2023/03/20 13:03:42;;;;;;;21.43;10.60;;;14.20;1.00;;;;;;5035514;28;20202;-76